Gullane, United Kingdom
Current Conditions -  °F | °C
As of 12:20 PM on Saturday 01 Nov 2014 (Local Time) from EGPH Reporting Station
Scattered Clouds Scattered Clouds  
Wind Chill: 55°   Ceiling: Unl
Heat Index: 55°   Visibility: 6mi
Dew Point: 45°   Wind: 18mph
Humidity: 67%   Direction: 210°SSW
Pressure: 29.68"   Gusts: NA
Location:  56.04°N, 2.83°W
Report Text: EGPH 011220Z 21016KT 9999 SCT028 13/07 Q1005
Loading
Personal Weather Stations






























Interactive Weather Map New forecast layout! Learn more

10-Day Weather Forecast

Advertisements
Track Severe Weather on mobile